createdAt,value
2023-01-24T00:02:40.033Z,19.03
2023-01-24T00:06:04.075Z,18.07
2023-01-24T00:09:25.878Z,17.37
2023-01-24T00:12:47.459Z,18.10
2023-01-24T00:16:11.236Z,19.60
2023-01-24T00:19:32.849Z,19.73
2023-01-24T00:22:54.469Z,17.37
2023-01-24T00:26:16.988Z,18.03
2023-01-24T00:29:38.595Z,18.07
2023-01-24T00:33:00.260Z,18.60
2023-01-24T00:36:21.834Z,15.83
2023-01-24T00:39:43.447Z,15.83
2023-01-24T00:43:05.126Z,17.07
2023-01-24T00:46:27.817Z,15.50
2023-01-24T00:49:49.456Z,16.20
2023-01-24T00:53:11.277Z,16.77
2023-01-24T00:56:35.636Z,16.30
2023-01-24T00:59:57.289Z,15.87
2023-01-24T01:03:20.343Z,13.77
2023-01-24T01:06:42.113Z,14.23
2023-01-24T01:10:04.795Z,14.33
2023-01-24T01:13:27.413Z,14.40
2023-01-24T01:16:49.022Z,15.00
2023-01-24T01:20:11.333Z,14.77
2023-01-24T01:23:33.424Z,15.23
2023-01-24T01:26:55.049Z,14.30
2023-01-24T01:30:16.953Z,14.47
2023-01-24T01:33:40.821Z,14.80
2023-01-24T01:37:04.610Z,13.97
2023-01-24T01:40:26.507Z,14.77
2023-01-24T01:44:09.154Z,12.67
2023-01-24T01:47:35.039Z,12.40
2023-01-24T01:51:04.668Z,13.47
2023-01-24T01:54:35.917Z,13.70
2023-01-24T01:57:58.551Z,12.73
2023-01-24T02:01:20.672Z,13.50
2023-01-24T02:04:47.856Z,12.63
2023-01-24T02:08:14.304Z,13.23
2023-01-24T02:11:40.209Z,12.73
2023-01-24T02:15:27.777Z,12.33
2023-01-24T02:18:49.367Z,11.60
2023-01-24T02:22:23.229Z,11.30
2023-01-24T02:26:06.016Z,12.27
2023-01-24T02:29:27.893Z,11.20
2023-01-24T02:32:51.668Z,11.83
2023-01-24T02:36:20.381Z,12.67
2023-01-24T02:39:46.877Z,13.10
2023-01-24T02:43:11.315Z,12.43
2023-01-24T02:46:37.377Z,11.53
2023-01-24T02:50:01.110Z,12.30
2023-01-24T02:53:32.231Z,11.80
2023-01-24T02:57:12.468Z,12.23
2023-01-24T03:00:40.107Z,11.57
2023-01-24T03:04:02.177Z,10.93
2023-01-24T03:07:26.025Z,9.43
2023-01-24T03:10:47.909Z,10.03
2023-01-24T03:14:28.251Z,9.57
2023-01-24T03:18:08.533Z,10.97
2023-01-24T03:21:48.448Z,8.80
2023-01-24T03:25:28.749Z,9.00
2023-01-24T03:29:08.523Z,8.10
2023-01-24T03:32:48.826Z,7.77
2023-01-24T03:36:14.416Z,8.63
2023-01-24T03:39:54.531Z,9.33
2023-01-24T03:43:16.099Z,9.50
2023-01-24T03:46:41.110Z,8.87
2023-01-24T03:50:21.449Z,8.33
2023-01-24T03:53:46.503Z,8.70
2023-01-24T03:57:08.094Z,9.20
2023-01-24T04:00:29.791Z,10.07
2023-01-24T04:03:51.465Z,9.80
2023-01-24T04:07:25.614Z,11.03
2023-01-24T04:10:50.977Z,10.60
2023-01-24T04:14:12.574Z,10.30
2023-01-24T04:17:36.702Z,10.53
2023-01-24T04:21:02.705Z,10.60
2023-01-24T04:24:24.412Z,10.50
2023-01-24T04:27:46.469Z,10.60
2023-01-24T04:31:09.899Z,9.87
2023-01-24T04:34:31.584Z,10.47
2023-01-24T04:37:53.735Z,19.53
2023-01-24T04:41:15.309Z,24.90
2023-01-24T04:44:40.498Z,11.73
2023-01-24T04:48:02.130Z,9.80
2023-01-24T04:51:23.955Z,8.60
2023-01-24T04:54:45.693Z,37.00
2023-01-24T04:58:07.310Z,40.70
2023-01-24T05:01:29.009Z,10.00
2023-01-24T05:04:50.582Z,8.47
2023-01-24T05:08:12.360Z,8.07
2023-01-24T05:11:34.086Z,8.53
2023-01-24T05:14:55.667Z,8.77
2023-01-24T05:18:18.684Z,8.90
2023-01-24T05:21:40.412Z,9.57
2023-01-24T05:25:02.483Z,9.47
2023-01-24T05:28:24.070Z,10.07
2023-01-24T05:31:45.888Z,10.90
2023-01-24T05:35:08.596Z,8.73
2023-01-24T05:38:30.493Z,9.23
2023-01-24T05:41:54.572Z,10.67
2023-01-24T05:45:16.197Z,9.13
2023-01-24T05:48:38.076Z,10.83
2023-01-24T05:51:59.653Z,9.87
2023-01-24T05:55:21.604Z,13.07
2023-01-24T05:58:45.163Z,12.07
2023-01-24T06:02:06.844Z,12.20
2023-01-24T06:05:28.456Z,12.57
2023-01-24T06:08:51.396Z,11.40
2023-01-24T06:12:13.041Z,11.67
2023-01-24T06:15:35.742Z,11.77
2023-01-24T06:18:57.948Z,11.77
2023-01-24T06:22:36.149Z,10.33
2023-01-24T06:25:58.022Z,11.63
2023-01-24T06:29:21.556Z,11.23
2023-01-24T06:33:16.550Z,11.43
2023-01-24T06:36:56.263Z,11.97
2023-01-24T06:40:21.923Z,13.13
2023-01-24T06:43:46.676Z,11.87
2023-01-24T06:47:11.416Z,12.40
2023-01-24T06:50:33.637Z,13.13
2023-01-24T06:53:55.246Z,11.67
2023-01-24T06:57:16.966Z,73.10
2023-01-24T07:00:38.608Z,28.13
2023-01-24T07:04:00.296Z,15.13
2023-01-24T07:07:22.026Z,15.63
2023-01-24T07:10:43.822Z,16.33
2023-01-24T07:14:05.549Z,17.33
2023-01-24T07:17:30.386Z,16.90
2023-01-24T07:20:57.579Z,15.37
2023-01-24T07:24:22.538Z,14.97
2023-01-24T07:27:44.645Z,15.47
2023-01-24T07:31:07.286Z,17.00
2023-01-24T07:34:28.924Z,16.83
2023-01-24T07:37:50.580Z,17.53
2023-01-24T07:41:12.189Z,17.70
2023-01-24T07:44:33.810Z,147.60
2023-01-24T07:47:57.794Z,18.77
2023-01-24T07:51:19.428Z,17.73
2023-01-24T07:54:41.076Z,16.43
2023-01-24T07:58:03.618Z,14.93
2023-01-24T08:01:26.224Z,13.87
2023-01-24T08:04:47.820Z,13.57
2023-01-24T08:08:11.621Z,13.00
2023-01-24T08:11:34.204Z,13.53
2023-01-24T08:14:55.875Z,12.90
2023-01-24T08:18:18.807Z,12.70
2023-01-24T08:21:40.373Z,12.83
2023-01-24T08:25:02.126Z,13.07
2023-01-24T08:28:26.269Z,12.37
2023-01-24T08:31:49.419Z,12.10
2023-01-24T08:35:16.295Z,12.30
2023-01-24T08:38:40.403Z,12.18
2023-01-24T08:42:02.027Z,12.55
2023-01-24T08:45:23.799Z,11.20
2023-01-24T08:48:45.495Z,11.45
2023-01-24T08:52:07.227Z,11.10
2023-01-24T08:55:28.847Z,11.52
2023-01-24T08:58:50.558Z,10.73
2023-01-24T09:02:17.278Z,9.93
2023-01-24T09:05:39.704Z,9.85
2023-01-24T09:09:01.391Z,10.15
2023-01-24T09:12:23.100Z,10.30
2023-01-24T09:15:45.150Z,10.23
2023-01-24T09:19:07.205Z,9.52
2023-01-24T09:22:31.305Z,10.18
2023-01-24T09:25:53.573Z,11.05
2023-01-24T09:29:15.161Z,10.70
2023-01-24T09:32:37.472Z,10.95
2023-01-24T09:36:01.132Z,10.75
2023-01-24T09:39:22.836Z,11.10
2023-01-24T09:42:56.794Z,10.32
2023-01-24T09:46:45.942Z,8.65
2023-01-24T09:50:16.850Z,9.63
2023-01-24T09:53:42.987Z,9.38
2023-01-24T09:57:18.880Z,9.32
2023-01-24T10:00:40.583Z,9.63
2023-01-24T10:04:02.209Z,9.13
2023-01-24T10:07:29.149Z,10.48
2023-01-24T10:11:28.069Z,10.13
2023-01-24T10:15:07.580Z,9.40
2023-01-24T10:18:51.673Z,8.77
2023-01-24T10:22:25.170Z,8.85
2023-01-24T10:25:51.833Z,7.90
2023-01-24T10:29:21.695Z,7.88
2023-01-24T10:32:44.981Z,7.95
2023-01-24T10:36:27.678Z,7.30
2023-01-24T10:39:50.013Z,7.10
2023-01-24T10:43:11.642Z,7.97
2023-01-24T10:46:33.170Z,7.50
2023-01-24T10:50:00.124Z,8.07
2023-01-24T10:53:30.361Z,7.70
2023-01-24T10:56:52.840Z,7.30
2023-01-24T11:00:20.568Z,6.63
2023-01-24T11:03:45.445Z,5.70
2023-01-24T11:07:24.708Z,5.38
2023-01-24T11:10:46.756Z,5.53
2023-01-24T11:14:14.613Z,5.75
2023-01-24T11:17:40.273Z,6.00
2023-01-24T11:21:21.144Z,5.50
2023-01-24T11:24:47.193Z,5.50
2023-01-24T11:28:24.422Z,6.13
2023-01-24T11:31:55.912Z,5.82
2023-01-24T11:35:33.492Z,5.82
2023-01-24T11:38:57.897Z,5.05
2023-01-24T11:42:46.425Z,5.57
2023-01-24T11:46:10.892Z,5.22
2023-01-24T11:49:40.890Z,5.75
2023-01-24T11:53:21.252Z,5.60
2023-01-24T11:56:55.829Z,5.97
2023-01-24T12:00:36.152Z,5.50
2023-01-24T12:04:32.197Z,5.22
2023-01-24T12:08:12.622Z,5.00
2023-01-24T12:11:44.433Z,5.03
2023-01-24T12:15:25.706Z,5.38
2023-01-24T12:19:07.871Z,4.53
2023-01-24T12:22:30.938Z,4.85
2023-01-24T12:25:54.295Z,5.43
2023-01-24T12:29:43.982Z,5.78
2023-01-24T12:33:22.286Z,5.35
2023-01-24T12:37:07.799Z,4.35
2023-01-24T12:40:52.002Z,5.10
2023-01-24T12:44:34.898Z,5.32
2023-01-24T12:48:10.566Z,5.45
2023-01-24T12:51:47.568Z,5.93
2023-01-24T12:55:12.244Z,5.22
2023-01-24T12:58:41.148Z,5.95
2023-01-24T13:02:27.574Z,5.43
2023-01-24T13:06:00.678Z,5.28
2023-01-24T13:09:31.469Z,6.25
2023-01-24T13:12:54.545Z,5.80
2023-01-24T13:16:31.393Z,6.07
2023-01-24T13:19:53.005Z,6.60
2023-01-24T13:23:31.658Z,6.07
2023-01-24T13:27:10.175Z,6.40
2023-01-24T13:30:55.373Z,6.93
2023-01-24T13:34:20.252Z,6.90
2023-01-24T13:37:41.909Z,6.65
2023-01-24T13:41:07.717Z,6.70
2023-01-24T13:44:33.368Z,6.50
2023-01-24T13:47:55.213Z,6.63
2023-01-24T13:51:31.497Z,7.45
2023-01-24T13:54:55.322Z,24.88
2023-01-24T13:58:24.351Z,10.05
2023-01-24T14:01:47.523Z,7.90
2023-01-24T14:05:30.783Z,8.75
2023-01-24T14:09:06.796Z,7.93
2023-01-24T14:12:30.057Z,7.25
2023-01-24T14:15:54.471Z,8.40
2023-01-24T14:19:20.953Z,7.90
2023-01-24T14:22:47.158Z,9.20
2023-01-24T14:26:15.577Z,9.23
2023-01-24T14:29:43.424Z,9.50
2023-01-24T14:33:25.342Z,10.10
2023-01-24T14:37:00.919Z,11.60
2023-01-24T14:40:26.959Z,12.88
2023-01-24T14:43:55.923Z,11.57
2023-01-24T14:47:20.956Z,12.75
2023-01-24T14:50:57.459Z,12.63
2023-01-24T14:54:26.313Z,13.05
2023-01-24T14:57:50.576Z,14.38
2023-01-24T15:01:31.799Z,34.78
2023-01-24T15:04:53.586Z,19.02
2023-01-24T15:08:18.635Z,16.35
2023-01-24T15:11:42.700Z,14.90
2023-01-24T15:15:05.425Z,15.00
2023-01-24T15:18:41.405Z,14.20
2023-01-24T15:22:03.363Z,13.80
2023-01-24T15:25:37.812Z,13.60
2023-01-24T15:28:59.471Z,14.00
2023-01-24T15:32:31.833Z,83.75
2023-01-24T15:35:54.043Z,15.73
2023-01-24T15:39:16.757Z,14.40
2023-01-24T15:42:56.729Z,15.25
2023-01-24T15:46:48.882Z,22.88
2023-01-24T15:50:41.234Z,15.40
2023-01-24T15:54:09.072Z,15.73
2023-01-24T15:57:35.903Z,15.38
2023-01-24T16:00:59.709Z,15.95
2023-01-24T16:04:23.574Z,15.57
2023-01-24T16:07:47.483Z,16.60
2023-01-24T16:11:10.246Z,17.35
2023-01-24T16:14:32.249Z,17.85
2023-01-24T16:17:53.785Z,17.92
2023-01-24T16:21:15.396Z,18.07
2023-01-24T16:24:36.979Z,18.33
2023-01-24T16:27:58.568Z,18.90
2023-01-24T16:31:20.262Z,18.03
2023-01-24T16:34:42.222Z,19.05
2023-01-24T16:38:06.052Z,20.00
2023-01-24T16:41:27.630Z,18.02
2023-01-24T16:44:58.026Z,18.60
2023-01-24T16:48:19.661Z,18.33
2023-01-24T16:51:43.705Z,18.10
2023-01-24T16:55:06.949Z,19.17
2023-01-24T16:58:33.828Z,17.30
2023-01-24T17:01:58.026Z,19.03
2023-01-24T17:05:19.645Z,19.02
2023-01-24T17:08:41.407Z,48.60
2023-01-24T17:12:14.236Z,26.97
2023-01-24T17:15:37.776Z,21.63
2023-01-24T17:19:01.768Z,20.17
2023-01-24T17:22:23.421Z,21.33
2023-01-24T17:25:47.214Z,19.77
2023-01-24T17:29:09.787Z,19.40
2023-01-24T17:32:39.009Z,20.17
2023-01-24T17:36:03.353Z,20.63
2023-01-24T17:39:24.947Z,21.97
2023-01-24T17:42:48.975Z,22.93
2023-01-24T17:46:10.840Z,22.20
2023-01-24T17:49:32.419Z,25.27
2023-01-24T17:52:53.961Z,24.17
2023-01-24T17:56:17.026Z,20.37
2023-01-24T17:59:40.855Z,24.77
2023-01-24T18:03:05.222Z,24.97
2023-01-24T18:06:29.088Z,25.67
2023-01-24T18:09:50.804Z,25.80
2023-01-24T18:13:17.159Z,27.70
2023-01-24T18:16:38.897Z,26.63
2023-01-24T18:20:04.158Z,22.83
2023-01-24T18:23:27.560Z,22.27
2023-01-24T18:26:49.157Z,23.43
2023-01-24T18:30:13.717Z,24.37
2023-01-24T18:33:38.086Z,25.53
2023-01-24T18:37:00.036Z,27.07
2023-01-24T18:40:21.773Z,28.17
2023-01-24T18:43:43.529Z,27.50
2023-01-24T18:47:09.979Z,30.33
2023-01-24T18:50:32.483Z,26.53
2023-01-24T18:53:54.929Z,22.10
2023-01-24T18:57:16.556Z,22.97
2023-01-24T19:00:42.474Z,23.80
2023-01-24T19:04:05.301Z,24.93
2023-01-24T19:07:26.839Z,32.40
2023-01-24T19:10:50.799Z,30.77
2023-01-24T19:14:13.837Z,25.57
2023-01-24T19:17:37.939Z,24.73
2023-01-24T19:21:10.732Z,25.67
2023-01-24T19:24:33.375Z,24.40
2023-01-24T19:27:54.975Z,26.83
2023-01-24T19:31:16.641Z,27.67
2023-01-24T19:34:38.242Z,26.07
2023-01-24T19:38:00.225Z,27.90
2023-01-24T19:41:22.944Z,29.83
2023-01-24T19:44:46.751Z,29.50
2023-01-24T19:48:10.315Z,25.13
2023-01-24T19:51:34.889Z,25.33
2023-01-24T19:54:59.022Z,28.80
2023-01-24T19:58:20.637Z,27.20
2023-01-24T20:01:42.347Z,27.63
2023-01-24T20:05:04.184Z,29.20
2023-01-24T20:08:25.743Z,36.03
2023-01-24T20:11:47.401Z,36.33
2023-01-24T20:15:10.008Z,35.20
2023-01-24T20:18:31.807Z,31.93
2023-01-24T20:21:53.459Z,31.80
2023-01-24T20:25:19.425Z,29.63
2023-01-24T20:28:42.638Z,26.27
2023-01-24T20:32:12.063Z,27.30
2023-01-24T20:35:34.339Z,28.07
2023-01-24T20:38:58.627Z,27.70
2023-01-24T20:42:20.174Z,27.40
2023-01-24T20:45:42.217Z,28.83
2023-01-24T20:49:06.235Z,30.70
2023-01-24T20:52:27.865Z,32.77
2023-01-24T20:55:57.451Z,31.40
2023-01-24T20:59:19.097Z,26.20
2023-01-24T21:02:43.173Z,26.33
2023-01-24T21:06:11.213Z,27.17
2023-01-24T21:09:32.752Z,27.30
2023-01-24T21:12:56.706Z,26.20
2023-01-24T21:16:20.591Z,27.53
2023-01-24T21:19:43.252Z,27.13
2023-01-24T21:23:04.927Z,27.57
2023-01-24T21:26:29.136Z,27.43
2023-01-24T21:29:50.809Z,27.77
2023-01-24T21:33:12.526Z,28.93
2023-01-24T21:36:37.198Z,25.53
2023-01-24T21:40:02.003Z,26.27
2023-01-24T21:43:25.933Z,25.57
2023-01-24T21:46:47.852Z,27.93
2023-01-24T21:50:10.393Z,27.77
2023-01-24T21:53:50.581Z,27.63
2023-01-24T21:57:33.515Z,25.10
2023-01-24T22:00:55.378Z,25.87
2023-01-24T22:04:18.299Z,26.13
2023-01-24T22:07:40.052Z,27.33
2023-01-24T22:11:05.478Z,27.20
2023-01-24T22:14:31.564Z,33.17
2023-01-24T22:17:55.789Z,33.47
2023-01-24T22:21:27.217Z,34.90
2023-01-24T22:25:00.689Z,35.60
2023-01-24T22:28:22.693Z,33.63
2023-01-24T22:31:47.080Z,32.73
2023-01-24T22:35:13.949Z,29.13
2023-01-24T22:38:38.572Z,29.70
2023-01-24T22:42:00.653Z,31.53
2023-01-24T22:45:24.542Z,37.03
2023-01-24T22:48:46.269Z,42.30
2023-01-24T22:52:10.305Z,42.83
2023-01-24T22:55:34.997Z,62.70
2023-01-24T22:58:59.550Z,61.57
2023-01-24T23:02:21.157Z,60.70
2023-01-24T23:05:43.022Z,60.40
2023-01-24T23:09:04.788Z,60.50
2023-01-24T23:12:44.929Z,63.00
2023-01-24T23:16:14.903Z,62.83
2023-01-24T23:20:00.481Z,59.53
2023-01-24T23:23:22.134Z,51.50
2023-01-24T23:26:43.885Z,43.20
2023-01-24T23:30:08.570Z,43.17
2023-01-24T23:33:35.353Z,34.93
2023-01-24T23:36:59.234Z,32.57
2023-01-24T23:40:20.840Z,31.13
2023-01-24T23:43:42.520Z,18.03
2023-01-24T23:47:04.116Z,30.37
2023-01-24T23:50:25.942Z,29.70
2023-01-24T23:53:50.866Z,27.90
2023-01-24T23:57:12.913Z,27.80
